sensor_id;sensor_type;location;lat;lon;timestamp;P1;durP1;ratioP1;P2;durP2;ratioP2
27632;SDS011;15046;50.930;13.334;2022-07-21T00:01:03;7.13;;;2.42;;
27632;SDS011;15046;50.930;13.334;2022-07-21T00:03:29;8.80;;;2.50;;
27632;SDS011;15046;50.930;13.334;2022-07-21T00:05:55;5.55;;;2.50;;
27632;SDS011;15046;50.930;13.334;2022-07-21T00:08:21;10.20;;;2.47;;
27632;SDS011;15046;50.930;13.334;2022-07-21T00:10:47;11.00;;;2.47;;
27632;SDS011;15046;50.930;13.334;2022-07-21T00:13:13;7.00;;;2.63;;
27632;SDS011;15046;50.930;13.334;2022-07-21T00:15:39;7.25;;;2.28;;
27632;SDS011;15046;50.930;13.334;2022-07-21T00:18:05;4.45;;;2.13;;
27632;SDS011;15046;50.930;13.334;2022-07-21T00:20:31;6.80;;;2.22;;
27632;SDS011;15046;50.930;13.334;2022-07-21T00:22:58;5.80;;;1.90;;
27632;SDS011;15046;50.930;13.334;2022-07-21T00:25:24;4.80;;;2.17;;
27632;SDS011;15046;50.930;13.334;2022-07-21T00:27:50;12.32;;;2.92;;
27632;SDS011;15046;50.930;13.334;2022-07-21T00:30:16;5.72;;;2.38;;
27632;SDS011;15046;50.930;13.334;2022-07-21T00:32:42;6.05;;;1.95;;
27632;SDS011;15046;50.930;13.334;2022-07-21T00:35:08;5.28;;;1.83;;
27632;SDS011;15046;50.930;13.334;2022-07-21T00:37:35;9.93;;;2.38;;
27632;SDS011;15046;50.930;13.334;2022-07-21T00:40:01;6.78;;;2.30;;
27632;SDS011;15046;50.930;13.334;2022-07-21T00:42:28;10.32;;;2.40;;
27632;SDS011;15046;50.930;13.334;2022-07-21T00:44:55;9.43;;;2.20;;
27632;SDS011;15046;50.930;13.334;2022-07-21T00:47:22;6.47;;;2.15;;
27632;SDS011;15046;50.930;13.334;2022-07-21T00:49:49;9.95;;;2.58;;
27632;SDS011;15046;50.930;13.334;2022-07-21T00:52:16;10.80;;;2.20;;
27632;SDS011;15046;50.930;13.334;2022-07-21T00:54:42;10.25;;;2.80;;
27632;SDS011;15046;50.930;13.334;2022-07-21T00:57:08;6.80;;;2.10;;
27632;SDS011;15046;50.930;13.334;2022-07-21T00:59:35;5.90;;;2.30;;
27632;SDS011;15046;50.930;13.334;2022-07-21T01:02:01;8.57;;;2.35;;
27632;SDS011;15046;50.930;13.334;2022-07-21T01:04:27;4.82;;;1.98;;
27632;SDS011;15046;50.930;13.334;2022-07-21T01:06:53;7.50;;;2.83;;
27632;SDS011;15046;50.930;13.334;2022-07-21T01:09:20;7.07;;;2.50;;
27632;SDS011;15046;50.930;13.334;2022-07-21T01:11:46;6.70;;;2.47;;
27632;SDS011;15046;50.930;13.334;2022-07-21T01:14:12;6.50;;;2.58;;
27632;SDS011;15046;50.930;13.334;2022-07-21T01:16:39;5.18;;;2.35;;
27632;SDS011;15046;50.930;13.334;2022-07-21T01:19:06;10.13;;;3.15;;
27632;SDS011;15046;50.930;13.334;2022-07-21T01:21:34;6.88;;;2.25;;
27632;SDS011;15046;50.930;13.334;2022-07-21T01:24:07;4.75;;;2.20;;
27632;SDS011;15046;50.930;13.334;2022-07-21T01:26:43;9.27;;;2.33;;
27632;SDS011;15046;50.930;13.334;2022-07-21T01:29:11;7.43;;;2.10;;
27632;SDS011;15046;50.930;13.334;2022-07-21T01:31:38;4.90;;;2.38;;
27632;SDS011;15046;50.930;13.334;2022-07-21T01:34:06;8.77;;;2.83;;
27632;SDS011;15046;50.930;13.334;2022-07-21T01:36:33;9.77;;;2.97;;
27632;SDS011;15046;50.930;13.334;2022-07-21T01:38:59;10.30;;;3.08;;
27632;SDS011;15046;50.930;13.334;2022-07-21T01:41:43;7.47;;;3.95;;
27632;SDS011;15046;50.930;13.334;2022-07-21T01:44:09;19.20;;;5.82;;
27632;SDS011;15046;50.930;13.334;2022-07-21T01:46:37;8.23;;;5.35;;
27632;SDS011;15046;50.930;13.334;2022-07-21T01:49:06;10.32;;;5.55;;
27632;SDS011;15046;50.930;13.334;2022-07-21T01:51:32;16.08;;;6.93;;
27632;SDS011;15046;50.930;13.334;2022-07-21T01:53:58;18.17;;;7.97;;
27632;SDS011;15046;50.930;13.334;2022-07-21T01:56:25;20.95;;;9.10;;
27632;SDS011;15046;50.930;13.334;2022-07-21T01:58:52;14.88;;;9.07;;
27632;SDS011;15046;50.930;13.334;2022-07-21T02:01:19;13.20;;;9.63;;
27632;SDS011;15046;50.930;13.334;2022-07-21T02:03:45;23.52;;;10.48;;
27632;SDS011;15046;50.930;13.334;2022-07-21T02:06:12;24.83;;;11.25;;
27632;SDS011;15046;50.930;13.334;2022-07-21T02:08:38;28.98;;;11.90;;
27632;SDS011;15046;50.930;13.334;2022-07-21T02:11:05;26.63;;;12.55;;
27632;SDS011;15046;50.930;13.334;2022-07-21T02:13:31;22.38;;;12.65;;
27632;SDS011;15046;50.930;13.334;2022-07-21T02:15:57;24.98;;;12.18;;
27632;SDS011;15046;50.930;13.334;2022-07-21T02:18:26;23.50;;;12.15;;
27632;SDS011;15046;50.930;13.334;2022-07-21T02:20:52;21.30;;;12.23;;
27632;SDS011;15046;50.930;13.334;2022-07-21T02:23:19;21.83;;;12.30;;
27632;SDS011;15046;50.930;13.334;2022-07-21T02:25:46;25.20;;;12.27;;
27632;SDS011;15046;50.930;13.334;2022-07-21T02:28:12;18.65;;;11.65;;
27632;SDS011;15046;50.930;13.334;2022-07-21T02:30:38;19.20;;;12.15;;
27632;SDS011;15046;50.930;13.334;2022-07-21T02:33:04;25.13;;;11.85;;
27632;SDS011;15046;50.930;13.334;2022-07-21T02:35:30;22.88;;;11.43;;
27632;SDS011;15046;50.930;13.334;2022-07-21T02:37:56;21.95;;;12.07;;
27632;SDS011;15046;50.930;13.334;2022-07-21T02:40:22;17.15;;;11.68;;
27632;SDS011;15046;50.930;13.334;2022-07-21T02:42:48;20.23;;;10.70;;
27632;SDS011;15046;50.930;13.334;2022-07-21T02:45:14;17.23;;;11.10;;
27632;SDS011;15046;50.930;13.334;2022-07-21T02:48:13;15.65;;;9.75;;
27632;SDS011;15046;50.930;13.334;2022-07-21T02:50:38;17.80;;;10.63;;
27632;SDS011;15046;50.930;13.334;2022-07-21T02:53:07;19.55;;;10.02;;
27632;SDS011;15046;50.930;13.334;2022-07-21T02:55:34;14.65;;;10.02;;
27632;SDS011;15046;50.930;13.334;2022-07-21T02:58:14;16.92;;;9.85;;
27632;SDS011;15046;50.930;13.334;2022-07-21T03:03:16;20.45;;;10.20;;
27632;SDS011;15046;50.930;13.334;2022-07-21T03:05:42;16.98;;;10.18;;
27632;SDS011;15046;50.930;13.334;2022-07-21T03:08:09;19.55;;;10.90;;
27632;SDS011;15046;50.930;13.334;2022-07-21T03:10:37;17.40;;;9.90;;
27632;SDS011;15046;50.930;13.334;2022-07-21T03:13:04;14.27;;;9.65;;
27632;SDS011;15046;50.930;13.334;2022-07-21T03:15:30;16.17;;;9.63;;
27632;SDS011;15046;50.930;13.334;2022-07-21T03:17:57;14.88;;;10.52;;
27632;SDS011;15046;50.930;13.334;2022-07-21T03:20:24;19.15;;;9.45;;
27632;SDS011;15046;50.930;13.334;2022-07-21T03:22:50;17.25;;;9.27;;
27632;SDS011;15046;50.930;13.334;2022-07-21T03:25:16;12.77;;;8.93;;
27632;SDS011;15046;50.930;13.334;2022-07-21T03:27:43;16.85;;;9.48;;
27632;SDS011;15046;50.930;13.334;2022-07-21T03:30:09;15.73;;;9.15;;
27632;SDS011;15046;50.930;13.334;2022-07-21T03:32:36;16.10;;;8.80;;
27632;SDS011;15046;50.930;13.334;2022-07-21T03:35:02;14.10;;;8.40;;
27632;SDS011;15046;50.930;13.334;2022-07-21T03:37:29;11.48;;;8.60;;
27632;SDS011;15046;50.930;13.334;2022-07-21T03:39:55;11.80;;;8.30;;
27632;SDS011;15046;50.930;13.334;2022-07-21T03:42:21;13.50;;;7.40;;
27632;SDS011;15046;50.930;13.334;2022-07-21T03:44:47;13.23;;;8.48;;
27632;SDS011;15046;50.930;13.334;2022-07-21T03:47:13;14.10;;;7.47;;
27632;SDS011;15046;50.930;13.334;2022-07-21T03:49:40;13.52;;;8.73;;
27632;SDS011;15046;50.930;13.334;2022-07-21T03:52:10;10.80;;;7.78;;
27632;SDS011;15046;50.930;13.334;2022-07-21T03:55:11;13.10;;;7.50;;
27632;SDS011;15046;50.930;13.334;2022-07-21T03:57:41;12.95;;;7.07;;
27632;SDS011;15046;50.930;13.334;2022-07-21T04:00:14;13.50;;;6.93;;
27632;SDS011;15046;50.930;13.334;2022-07-21T04:02:45;15.68;;;6.93;;
27632;SDS011;15046;50.930;13.334;2022-07-21T04:05:12;7.72;;;6.00;;
27632;SDS011;15046;50.930;13.334;2022-07-21T04:07:39;11.75;;;6.45;;
27632;SDS011;15046;50.930;13.334;2022-07-21T04:10:07;9.38;;;5.53;;
27632;SDS011;15046;50.930;13.334;2022-07-21T04:12:34;11.88;;;5.85;;
27632;SDS011;15046;50.930;13.334;2022-07-21T04:15:00;8.50;;;5.47;;
27632;SDS011;15046;50.930;13.334;2022-07-21T04:17:26;7.22;;;5.35;;
27632;SDS011;15046;50.930;13.334;2022-07-21T04:19:51;8.73;;;5.80;;
27632;SDS011;15046;50.930;13.334;2022-07-21T04:22:17;8.35;;;5.30;;
27632;SDS011;15046;50.930;13.334;2022-07-21T04:24:43;6.47;;;4.95;;
27632;SDS011;15046;50.930;13.334;2022-07-21T04:27:09;10.10;;;5.20;;
27632;SDS011;15046;50.930;13.334;2022-07-21T04:29:35;9.10;;;5.10;;
27632;SDS011;15046;50.930;13.334;2022-07-21T04:32:00;11.18;;;5.18;;
27632;SDS011;15046;50.930;13.334;2022-07-21T04:34:26;6.55;;;5.25;;
27632;SDS011;15046;50.930;13.334;2022-07-21T04:36:53;8.82;;;5.53;;
27632;SDS011;15046;50.930;13.334;2022-07-21T04:39:19;12.35;;;5.20;;
27632;SDS011;15046;50.930;13.334;2022-07-21T04:41:45;7.97;;;5.00;;
27632;SDS011;15046;50.930;13.334;2022-07-21T04:44:11;10.73;;;5.43;;
27632;SDS011;15046;50.930;13.334;2022-07-21T04:46:36;9.73;;;5.13;;
27632;SDS011;15046;50.930;13.334;2022-07-21T04:49:02;6.95;;;4.90;;
27632;SDS011;15046;50.930;13.334;2022-07-21T04:51:28;8.85;;;5.20;;
27632;SDS011;15046;50.930;13.334;2022-07-21T04:53:54;9.48;;;5.07;;
27632;SDS011;15046;50.930;13.334;2022-07-21T04:56:19;8.05;;;5.22;;
27632;SDS011;15046;50.930;13.334;2022-07-21T04:58:45;7.82;;;5.22;;
27632;SDS011;15046;50.930;13.334;2022-07-21T05:01:11;10.30;;;5.55;;
27632;SDS011;15046;50.930;13.334;2022-07-21T05:03:37;8.95;;;5.40;;
27632;SDS011;15046;50.930;13.334;2022-07-21T05:06:03;8.75;;;5.10;;
27632;SDS011;15046;50.930;13.334;2022-07-21T05:08:29;11.52;;;5.25;;
27632;SDS011;15046;50.930;13.334;2022-07-21T05:10:54;8.93;;;5.57;;
27632;SDS011;15046;50.930;13.334;2022-07-21T05:13:20;7.40;;;5.13;;
27632;SDS011;15046;50.930;13.334;2022-07-21T05:15:46;8.60;;;5.65;;
27632;SDS011;15046;50.930;13.334;2022-07-21T05:18:12;8.00;;;5.18;;
27632;SDS011;15046;50.930;13.334;2022-07-21T05:20:37;9.93;;;5.65;;
27632;SDS011;15046;50.930;13.334;2022-07-21T05:23:03;9.25;;;5.80;;
27632;SDS011;15046;50.930;13.334;2022-07-21T05:25:29;7.95;;;5.00;;
27632;SDS011;15046;50.930;13.334;2022-07-21T05:27:57;19.40;;;6.22;;
27632;SDS011;15046;50.930;13.334;2022-07-21T05:30:23;11.18;;;5.55;;
27632;SDS011;15046;50.930;13.334;2022-07-21T05:32:49;8.23;;;6.00;;
27632;SDS011;15046;50.930;13.334;2022-07-21T05:35:15;8.27;;;5.60;;
27632;SDS011;15046;50.930;13.334;2022-07-21T05:37:41;8.23;;;5.88;;
27632;SDS011;15046;50.930;13.334;2022-07-21T05:40:07;8.45;;;6.00;;
27632;SDS011;15046;50.930;13.334;2022-07-21T05:42:34;11.73;;;6.30;;
27632;SDS011;15046;50.930;13.334;2022-07-21T05:45:01;10.27;;;6.80;;
27632;SDS011;15046;50.930;13.334;2022-07-21T05:47:28;12.43;;;7.25;;
27632;SDS011;15046;50.930;13.334;2022-07-21T05:49:54;8.02;;;6.05;;
27632;SDS011;15046;50.930;13.334;2022-07-21T05:52:20;9.60;;;7.13;;
27632;SDS011;15046;50.930;13.334;2022-07-21T05:54:46;8.40;;;6.35;;
27632;SDS011;15046;50.930;13.334;2022-07-21T05:57:12;8.32;;;6.22;;
27632;SDS011;15046;50.930;13.334;2022-07-21T05:59:38;11.88;;;7.13;;
27632;SDS011;15046;50.930;13.334;2022-07-21T06:02:03;10.80;;;6.57;;
27632;SDS011;15046;50.930;13.334;2022-07-21T06:04:29;10.88;;;7.22;;
27632;SDS011;15046;50.930;13.334;2022-07-21T06:06:55;9.80;;;7.32;;
27632;SDS011;15046;50.930;13.334;2022-07-21T06:09:21;10.75;;;6.80;;
27632;SDS011;15046;50.930;13.334;2022-07-21T06:11:46;11.57;;;6.43;;
27632;SDS011;15046;50.930;13.334;2022-07-21T06:14:12;8.57;;;7.03;;
27632;SDS011;15046;50.930;13.334;2022-07-21T06:16:38;13.43;;;6.22;;
27632;SDS011;15046;50.930;13.334;2022-07-21T06:19:07;9.88;;;7.65;;
27632;SDS011;15046;50.930;13.334;2022-07-21T06:21:33;13.68;;;6.80;;
27632;SDS011;15046;50.930;13.334;2022-07-21T06:23:59;12.57;;;6.93;;
27632;SDS011;15046;50.930;13.334;2022-07-21T06:26:26;16.13;;;7.00;;
27632;SDS011;15046;50.930;13.334;2022-07-21T06:28:52;12.05;;;6.82;;
27632;SDS011;15046;50.930;13.334;2022-07-21T06:31:18;14.00;;;8.00;;
27632;SDS011;15046;50.930;13.334;2022-07-21T06:33:44;12.38;;;7.28;;
27632;SDS011;15046;50.930;13.334;2022-07-21T06:36:10;10.75;;;6.70;;
27632;SDS011;15046;50.930;13.334;2022-07-21T06:38:36;8.85;;;6.55;;
27632;SDS011;15046;50.930;13.334;2022-07-21T06:41:02;9.05;;;6.57;;
27632;SDS011;15046;50.930;13.334;2022-07-21T06:43:28;9.20;;;6.35;;
27632;SDS011;15046;50.930;13.334;2022-07-21T06:45:54;10.70;;;7.20;;
27632;SDS011;15046;50.930;13.334;2022-07-21T06:48:20;13.95;;;7.50;;
27632;SDS011;15046;50.930;13.334;2022-07-21T06:50:47;9.52;;;6.55;;
27632;SDS011;15046;50.930;13.334;2022-07-21T06:53:12;21.08;;;7.13;;
27632;SDS011;15046;50.930;13.334;2022-07-21T06:55:38;8.98;;;6.65;;
27632;SDS011;15046;50.930;13.334;2022-07-21T06:58:12;9.82;;;6.78;;
27632;SDS011;15046;50.930;13.334;2022-07-21T07:00:45;8.85;;;6.43;;
27632;SDS011;15046;50.930;13.334;2022-07-21T07:03:13;12.00;;;7.18;;
27632;SDS011;15046;50.930;13.334;2022-07-21T07:05:40;10.73;;;7.07;;
27632;SDS011;15046;50.930;13.334;2022-07-21T07:08:07;12.82;;;6.55;;
27632;SDS011;15046;50.930;13.334;2022-07-21T07:10:32;9.38;;;6.22;;
27632;SDS011;15046;50.930;13.334;2022-07-21T07:12:58;13.10;;;6.93;;
27632;SDS011;15046;50.930;13.334;2022-07-21T07:15:25;10.50;;;6.95;;
27632;SDS011;15046;50.930;13.334;2022-07-21T07:17:51;12.00;;;7.15;;
27632;SDS011;15046;50.930;13.334;2022-07-21T07:20:17;7.70;;;5.85;;
27632;SDS011;15046;50.930;13.334;2022-07-21T07:22:43;10.05;;;7.28;;
27632;SDS011;15046;50.930;13.334;2022-07-21T07:25:09;10.13;;;6.72;;
27632;SDS011;15046;50.930;13.334;2022-07-21T07:27:35;10.15;;;6.80;;
27632;SDS011;15046;50.930;13.334;2022-07-21T07:30:01;11.73;;;7.25;;
27632;SDS011;15046;50.930;13.334;2022-07-21T07:32:27;12.77;;;7.65;;
27632;SDS011;15046;50.930;13.334;2022-07-21T07:34:53;12.68;;;7.22;;
27632;SDS011;15046;50.930;13.334;2022-07-21T07:37:19;8.57;;;6.93;;
27632;SDS011;15046;50.930;13.334;2022-07-21T07:39:45;12.68;;;7.50;;
27632;SDS011;15046;50.930;13.334;2022-07-21T07:42:11;11.27;;;7.00;;
27632;SDS011;15046;50.930;13.334;2022-07-21T07:44:37;13.70;;;7.32;;
27632;SDS011;15046;50.930;13.334;2022-07-21T07:47:03;12.05;;;8.50;;
27632;SDS011;15046;50.930;13.334;2022-07-21T07:49:29;11.57;;;7.47;;
27632;SDS011;15046;50.930;13.334;2022-07-21T07:51:55;12.13;;;7.22;;
27632;SDS011;15046;50.930;13.334;2022-07-21T07:54:22;10.23;;;7.60;;
27632;SDS011;15046;50.930;13.334;2022-07-21T07:56:48;12.90;;;7.55;;
27632;SDS011;15046;50.930;13.334;2022-07-21T07:59:14;11.88;;;7.95;;
27632;SDS011;15046;50.930;13.334;2022-07-21T08:01:40;11.52;;;7.35;;
27632;SDS011;15046;50.930;13.334;2022-07-21T08:04:06;10.48;;;7.55;;
27632;SDS011;15046;50.930;13.334;2022-07-21T08:06:32;10.45;;;7.90;;
27632;SDS011;15046;50.930;13.334;2022-07-21T08:08:58;11.95;;;7.78;;
27632;SDS011;15046;50.930;13.334;2022-07-21T08:11:24;9.95;;;7.85;;
27632;SDS011;15046;50.930;13.334;2022-07-21T08:13:50;10.23;;;7.78;;
27632;SDS011;15046;50.930;13.334;2022-07-21T08:16:17;11.23;;;7.47;;
27632;SDS011;15046;50.930;13.334;2022-07-21T08:18:43;14.55;;;8.18;;
27632;SDS011;15046;50.930;13.334;2022-07-21T08:21:09;10.90;;;7.68;;
27632;SDS011;15046;50.930;13.334;2022-07-21T08:23:35;10.70;;;8.07;;
27632;SDS011;15046;50.930;13.334;2022-07-21T08:26:02;10.13;;;8.00;;
27632;SDS011;15046;50.930;13.334;2022-07-21T08:28:29;12.40;;;8.27;;
27632;SDS011;15046;50.930;13.334;2022-07-21T08:30:55;13.57;;;8.30;;
27632;SDS011;15046;50.930;13.334;2022-07-21T08:33:21;15.50;;;8.98;;
27632;SDS011;15046;50.930;13.334;2022-07-21T08:35:47;11.15;;;8.45;;
27632;SDS011;15046;50.930;13.334;2022-07-21T08:38:13;17.80;;;8.57;;
27632;SDS011;15046;50.930;13.334;2022-07-21T08:40:40;12.18;;;8.75;;
27632;SDS011;15046;50.930;13.334;2022-07-21T08:43:07;12.85;;;7.55;;
27632;SDS011;15046;50.930;13.334;2022-07-21T08:45:35;9.30;;;7.35;;
27632;SDS011;15046;50.930;13.334;2022-07-21T08:48:01;10.15;;;7.82;;
27632;SDS011;15046;50.930;13.334;2022-07-21T08:50:29;12.38;;;8.20;;
27632;SDS011;15046;50.930;13.334;2022-07-21T08:53:01;10.82;;;7.32;;
27632;SDS011;15046;50.930;13.334;2022-07-21T08:55:34;8.80;;;7.55;;
27632;SDS011;15046;50.930;13.334;2022-07-21T08:58:02;14.55;;;7.32;;
27632;SDS011;15046;50.930;13.334;2022-07-21T09:00:32;11.90;;;7.72;;
27632;SDS011;15046;50.930;13.334;2022-07-21T09:03:13;8.95;;;7.15;;
27632;SDS011;15046;50.930;13.334;2022-07-21T09:11:13;10.65;;;6.53;;
27632;SDS011;15046;50.930;13.334;2022-07-21T09:13:49;10.23;;;5.85;;
27632;SDS011;15046;50.930;13.334;2022-07-21T09:16:39;12.70;;;7.03;;
27632;SDS011;15046;50.930;13.334;2022-07-21T09:19:20;9.82;;;5.32;;
27632;SDS011;15046;50.930;13.334;2022-07-21T09:21:47;8.35;;;5.05;;
27632;SDS011;15046;50.930;13.334;2022-07-21T09:26:59;7.32;;;5.53;;
27632;SDS011;15046;50.930;13.334;2022-07-21T09:29:25;8.70;;;4.75;;
27632;SDS011;15046;50.930;13.334;2022-07-21T09:31:51;7.47;;;4.97;;
27632;SDS011;15046;50.930;13.334;2022-07-21T09:34:17;6.88;;;5.10;;
27632;SDS011;15046;50.930;13.334;2022-07-21T09:36:55;7.25;;;4.90;;
27632;SDS011;15046;50.930;13.334;2022-07-21T09:39:42;7.45;;;5.30;;
27632;SDS011;15046;50.930;13.334;2022-07-21T09:42:13;6.82;;;5.00;;
27632;SDS011;15046;50.930;13.334;2022-07-21T09:44:41;12.23;;;4.80;;
27632;SDS011;15046;50.930;13.334;2022-07-21T09:47:11;7.30;;;4.55;;
27632;SDS011;15046;50.930;13.334;2022-07-21T09:49:38;9.95;;;5.70;;
27632;SDS011;15046;50.930;13.334;2022-07-21T09:52:21;8.80;;;3.78;;
27632;SDS011;15046;50.930;13.334;2022-07-21T09:55:04;6.78;;;3.75;;
27632;SDS011;15046;50.930;13.334;2022-07-21T09:57:38;7.18;;;3.70;;
27632;SDS011;15046;50.930;13.334;2022-07-21T10:00:05;8.38;;;4.00;;
27632;SDS011;15046;50.930;13.334;2022-07-21T10:02:33;6.30;;;4.53;;
27632;SDS011;15046;50.930;13.334;2022-07-21T10:05:04;6.88;;;4.30;;
27632;SDS011;15046;50.930;13.334;2022-07-21T10:07:33;7.43;;;5.18;;
27632;SDS011;15046;50.930;13.334;2022-07-21T10:10:02;6.18;;;4.75;;
27632;SDS011;15046;50.930;13.334;2022-07-21T10:12:29;6.57;;;4.43;;
27632;SDS011;15046;50.930;13.334;2022-07-21T10:14:55;11.70;;;5.00;;
27632;SDS011;15046;50.930;13.334;2022-07-21T10:17:21;8.23;;;5.05;;
27632;SDS011;15046;50.930;13.334;2022-07-21T10:23:16;13.43;;;5.45;;
27632;SDS011;15046;50.930;13.334;2022-07-21T10:25:53;12.52;;;5.82;;
27632;SDS011;15046;50.930;13.334;2022-07-21T10:28:20;7.32;;;5.22;;
27632;SDS011;15046;50.930;13.334;2022-07-21T10:30:52;9.38;;;5.18;;
27632;SDS011;15046;50.930;13.334;2022-07-21T10:33:52;7.13;;;5.35;;
27632;SDS011;15046;50.930;13.334;2022-07-21T10:36:08;7.28;;;5.18;;
27632;SDS011;15046;50.930;13.334;2022-07-21T10:38:35;9.18;;;5.88;;
27632;SDS011;15046;50.930;13.334;2022-07-21T10:41:03;12.15;;;6.30;;
27632;SDS011;15046;50.930;13.334;2022-07-21T10:45:57;8.00;;;5.40;;
27632;SDS011;15046;50.930;13.334;2022-07-21T10:51:07;8.10;;;5.55;;
27632;SDS011;15046;50.930;13.334;2022-07-21T10:53:40;7.10;;;5.65;;
27632;SDS011;15046;50.930;13.334;2022-07-21T10:56:07;8.10;;;5.43;;
27632;SDS011;15046;50.930;13.334;2022-07-21T10:58:39;7.95;;;6.03;;
27632;SDS011;15046;50.930;13.334;2022-07-21T11:01:08;7.82;;;5.75;;
27632;SDS011;15046;50.930;13.334;2022-07-21T11:04:06;9.23;;;6.07;;
27632;SDS011;15046;50.930;13.334;2022-07-21T11:06:36;7.93;;;6.40;;
27632;SDS011;15046;50.930;13.334;2022-07-21T11:09:15;9.27;;;6.53;;
27632;SDS011;15046;50.930;13.334;2022-07-21T11:11:58;11.13;;;6.13;;
27632;SDS011;15046;50.930;13.334;2022-07-21T11:14:38;8.48;;;6.25;;
27632;SDS011;15046;50.930;13.334;2022-07-21T11:17:09;8.15;;;6.35;;
27632;SDS011;15046;50.930;13.334;2022-07-21T11:19:48;11.13;;;6.88;;
27632;SDS011;15046;50.930;13.334;2022-07-21T11:22:19;9.32;;;7.32;;
27632;SDS011;15046;50.930;13.334;2022-07-21T11:24:56;9.02;;;7.40;;
27632;SDS011;15046;50.930;13.334;2022-07-21T11:27:25;13.43;;;6.45;;
27632;SDS011;15046;50.930;13.334;2022-07-21T11:29:53;9.98;;;6.78;;
27632;SDS011;15046;50.930;13.334;2022-07-21T11:32:20;11.23;;;7.10;;
27632;SDS011;15046;50.930;13.334;2022-07-21T11:37:18;10.48;;;7.15;;
27632;SDS011;15046;50.930;13.334;2022-07-21T11:39:52;9.75;;;6.50;;
27632;SDS011;15046;50.930;13.334;2022-07-21T11:42:17;11.52;;;7.47;;
27632;SDS011;15046;50.930;13.334;2022-07-21T11:44:43;10.25;;;6.60;;
27632;SDS011;15046;50.930;13.334;2022-07-21T11:47:10;8.77;;;7.18;;
27632;SDS011;15046;50.930;13.334;2022-07-21T11:49:38;10.43;;;7.55;;
27632;SDS011;15046;50.930;13.334;2022-07-21T11:52:09;12.88;;;7.13;;
27632;SDS011;15046;50.930;13.334;2022-07-21T11:54:38;8.05;;;6.50;;
27632;SDS011;15046;50.930;13.334;2022-07-21T11:57:08;9.02;;;6.75;;
27632;SDS011;15046;50.930;13.334;2022-07-21T11:59:34;8.07;;;6.38;;
27632;SDS011;15046;50.930;13.334;2022-07-21T12:07:23;9.80;;;6.30;;
27632;SDS011;15046;50.930;13.334;2022-07-21T12:10:04;8.73;;;6.75;;
27632;SDS011;15046;50.930;13.334;2022-07-21T12:12:33;9.38;;;6.90;;
27632;SDS011;15046;50.930;13.334;2022-07-21T12:15:17;9.82;;;7.10;;
27632;SDS011;15046;50.930;13.334;2022-07-21T12:17:45;8.13;;;6.63;;
27632;SDS011;15046;50.930;13.334;2022-07-21T12:20:14;9.85;;;6.75;;
27632;SDS011;15046;50.930;13.334;2022-07-21T12:22:48;7.30;;;6.20;;
27632;SDS011;15046;50.930;13.334;2022-07-21T12:25:15;8.95;;;6.70;;
27632;SDS011;15046;50.930;13.334;2022-07-21T12:27:46;9.35;;;6.75;;
27632;SDS011;15046;50.930;13.334;2022-07-21T12:36:01;8.48;;;6.57;;
27632;SDS011;15046;50.930;13.334;2022-07-21T12:38:45;7.80;;;5.70;;
27632;SDS011;15046;50.930;13.334;2022-07-21T12:41:13;9.10;;;6.22;;
27632;SDS011;15046;50.930;13.334;2022-07-21T12:43:52;7.70;;;6.03;;
27632;SDS011;15046;50.930;13.334;2022-07-21T12:46:19;6.82;;;5.18;;
27632;SDS011;15046;50.930;13.334;2022-07-21T12:48:45;8.30;;;5.85;;
27632;SDS011;15046;50.930;13.334;2022-07-21T12:51:13;7.15;;;5.22;;
27632;SDS011;15046;50.930;13.334;2022-07-21T12:53:41;8.43;;;6.05;;
27632;SDS011;15046;50.930;13.334;2022-07-21T12:56:10;9.68;;;5.60;;
27632;SDS011;15046;50.930;13.334;2022-07-21T12:58:38;7.88;;;5.70;;
27632;SDS011;15046;50.930;13.334;2022-07-21T13:01:04;8.52;;;5.82;;
27632;SDS011;15046;50.930;13.334;2022-07-21T13:03:31;9.50;;;5.93;;
27632;SDS011;15046;50.930;13.334;2022-07-21T13:05:59;12.80;;;6.28;;
27632;SDS011;15046;50.930;13.334;2022-07-21T13:08:26;8.23;;;6.07;;
27632;SDS011;15046;50.930;13.334;2022-07-21T13:10:53;9.77;;;6.82;;
27632;SDS011;15046;50.930;13.334;2022-07-21T13:13:19;10.25;;;7.07;;
27632;SDS011;15046;50.930;13.334;2022-07-21T13:15:44;9.38;;;6.38;;
27632;SDS011;15046;50.930;13.334;2022-07-21T13:18:10;8.02;;;7.00;;
27632;SDS011;15046;50.930;13.334;2022-07-21T13:20:36;9.48;;;7.57;;
27632;SDS011;15046;50.930;13.334;2022-07-21T13:23:02;9.35;;;7.18;;
27632;SDS011;15046;50.930;13.334;2022-07-21T13:25:28;14.27;;;7.32;;
27632;SDS011;15046;50.930;13.334;2022-07-21T13:27:54;9.13;;;7.07;;
27632;SDS011;15046;50.930;13.334;2022-07-21T13:30:20;11.95;;;7.53;;
27632;SDS011;15046;50.930;13.334;2022-07-21T13:32:46;8.55;;;7.25;;
27632;SDS011;15046;50.930;13.334;2022-07-21T13:35:12;10.13;;;7.30;;
27632;SDS011;15046;50.930;13.334;2022-07-21T13:37:38;8.02;;;6.90;;
27632;SDS011;15046;50.930;13.334;2022-07-21T13:40:04;9.35;;;7.53;;
27632;SDS011;15046;50.930;13.334;2022-07-21T13:42:30;8.60;;;6.70;;
27632;SDS011;15046;50.930;13.334;2022-07-21T13:44:56;10.27;;;6.93;;
27632;SDS011;15046;50.930;13.334;2022-07-21T13:47:22;13.10;;;8.10;;
27632;SDS011;15046;50.930;13.334;2022-07-21T13:49:48;10.10;;;7.45;;
27632;SDS011;15046;50.930;13.334;2022-07-21T13:52:14;10.38;;;8.20;;
27632;SDS011;15046;50.930;13.334;2022-07-21T13:54:40;10.40;;;8.57;;
27632;SDS011;15046;50.930;13.334;2022-07-21T13:57:05;20.08;;;10.73;;
27632;SDS011;15046;50.930;13.334;2022-07-21T13:59:31;18.00;;;9.57;;
27632;SDS011;15046;50.930;13.334;2022-07-21T14:01:57;11.48;;;8.32;;
27632;SDS011;15046;50.930;13.334;2022-07-21T14:04:23;9.75;;;7.57;;
27632;SDS011;15046;50.930;13.334;2022-07-21T14:06:49;10.77;;;8.20;;
27632;SDS011;15046;50.930;13.334;2022-07-21T14:09:17;11.02;;;7.57;;
27632;SDS011;15046;50.930;13.334;2022-07-21T14:11:43;9.98;;;7.88;;
27632;SDS011;15046;50.930;13.334;2022-07-21T14:14:09;14.25;;;8.52;;
27632;SDS011;15046;50.930;13.334;2022-07-21T14:16:42;13.02;;;8.10;;
27632;SDS011;15046;50.930;13.334;2022-07-21T14:19:08;10.27;;;8.23;;
27632;SDS011;15046;50.930;13.334;2022-07-21T14:21:34;11.82;;;8.88;;
27632;SDS011;15046;50.930;13.334;2022-07-21T14:24:00;10.00;;;7.93;;
27632;SDS011;15046;50.930;13.334;2022-07-21T14:27:10;11.02;;;8.38;;
27632;SDS011;15046;50.930;13.334;2022-07-21T14:29:36;11.13;;;8.98;;
27632;SDS011;15046;50.930;13.334;2022-07-21T14:32:01;14.73;;;9.60;;
27632;SDS011;15046;50.930;13.334;2022-07-21T14:34:27;12.07;;;9.10;;
27632;SDS011;15046;50.930;13.334;2022-07-21T14:36:53;11.88;;;9.20;;
27632;SDS011;15046;50.930;13.334;2022-07-21T14:39:19;11.68;;;8.15;;
27632;SDS011;15046;50.930;13.334;2022-07-21T14:41:45;12.18;;;8.65;;
27632;SDS011;15046;50.930;13.334;2022-07-21T14:44:12;12.25;;;8.88;;
27632;SDS011;15046;50.930;13.334;2022-07-21T14:46:38;9.32;;;7.80;;
27632;SDS011;15046;50.930;13.334;2022-07-21T14:49:04;17.75;;;10.80;;
27632;SDS011;15046;50.930;13.334;2022-07-21T14:51:30;10.68;;;8.15;;
27632;SDS011;15046;50.930;13.334;2022-07-21T14:53:56;11.32;;;8.23;;
27632;SDS011;15046;50.930;13.334;2022-07-21T14:56:21;12.50;;;9.10;;
27632;SDS011;15046;50.930;13.334;2022-07-21T14:58:47;13.68;;;9.75;;
27632;SDS011;15046;50.930;13.334;2022-07-21T15:01:13;14.80;;;8.60;;
27632;SDS011;15046;50.930;13.334;2022-07-21T15:03:39;10.55;;;7.82;;